Terminal Aerodrome Forecast
Issued by NWS

Home | Current Version | Previous Version | Text Only | Print | Product List | Glossary On
Versions: 1 2 3 4 5 6 7 8 9 10 11 12 13 14 15 16 17 18
000
FTUS42 KMLB 012331
TAFTIX
TAF
KTIX 012331Z 0200/0224 11010KT P6SM SCT080 BKN250
     FM020300 17003KT P6SM FEW080 SCT250
     FM021300 21005KT P6SM FEW025 SCT250
     FM021800 19006KT P6SM VCSH SCT035 BKN250
      AMD NOT SKED 0201/0212=

USA.gov is the U.S. government's official web portal to all federal, state and local government web resources and services.